Time;durP1;ratioP1;P1;durP2;ratioP2;P2;SDS_P1;SDS_P2;PMS_P1;PMS_P2;Temp;Humidity;BMP_temperature;BMP_pressure;BME280_temperature;BME280_humidity;BME280_pressure;Samples;Min_cycle;Max_cycle;Signal;HPM_P1;HPM_P2
2023/01/09 00:01:41;;;;;;;17.73;10.90;;;6.80;64.10;;;;;;5018179;28;46359;-64
2023/01/09 00:04:07;;;;;;;23.43;11.03;;;6.70;64.30;;;;;;5017958;28;46882;-64
2023/01/09 00:06:34;;;;;;;22.37;10.77;;;6.70;64.30;;;;;;5017355;28;46704;-64
2023/01/09 00:09:00;;;;;;;16.60;10.33;;;6.80;64.40;;;;;;5018800;28;46510;-65
2023/01/09 00:11:25;;;;;;;19.47;11.10;;;6.80;63.40;;;;;;5016623;28;46317;-64
2023/01/09 00:13:51;;;;;;;19.83;12.00;;;6.80;64.30;;;;;;5017762;28;46599;-64
2023/01/09 00:16:17;;;;;;;18.47;11.67;;;6.80;64.20;;;;;;5016476;28;46609;-65
2023/01/09 00:18:43;;;;;;;18.43;11.63;;;6.80;64.30;;;;;;5017128;28;47112;-64
2023/01/09 00:21:11;;;;;;;19.33;11.50;;;6.80;64.30;;;;;;5017426;28;46411;-65
2023/01/09 00:23:36;;;;;;;18.90;12.70;;;6.70;64.30;;;;;;5032222;28;46607;-64
2023/01/09 00:26:12;;;;;;;17.47;11.50;;;6.80;63.20;;;;;;5017106;28;46177;-65
2023/01/09 00:28:38;;;;;;;22.80;12.77;;;6.80;64.20;;;;;;5016665;28;47208;-64
2023/01/09 00:31:05;;;;;;;21.47;11.53;;;6.80;64.00;;;;;;5014089;28;46493;-64
2023/01/09 00:33:43;;;;;;;18.70;11.30;;;6.80;63.90;;;;;;5017967;28;46406;-64
2023/01/09 00:36:09;;;;;;;15.33;10.00;;;6.90;63.20;;;;;;5016696;28;46504;-66
2023/01/09 00:38:36;;;;;;;15.03;10.60;;;6.90;64.20;;;;;;5016633;28;47095;-64
2023/01/09 00:41:04;;;;;;;21.10;10.43;;;6.90;64.10;;;;;;5019697;28;46390;-64
2023/01/09 00:43:34;;;;;;;21.77;10.73;;;6.90;64.10;;;;;;5023268;28;46464;-65
2023/01/09 00:46:02;;;;;;;16.10;9.97;;;6.90;63.30;;;;;;5017352;28;46390;-64
2023/01/09 00:48:28;;;;;;;17.80;11.07;;;6.90;64.40;;;;;;5016398;28;48015;-65
2023/01/09 00:50:58;;;;;;;20.13;11.27;;;7.00;64.70;;;;;;5017642;28;46506;-65
2023/01/09 00:53:27;;;;;;;15.03;10.13;;;7.00;64.50;;;;;;5019273;28;46439;-65
2023/01/09 00:55:57;;;;;;;13.80;9.73;;;7.00;64.70;;;;;;5020887;28;46496;-64
2023/01/09 00:58:23;;;;;;;21.00;9.97;;;6.90;64.80;;;;;;5047733;28;46472;-63
2023/01/09 01:00:48;;;;;;;16.67;9.43;;;6.90;64.80;;;;;;5020851;28;46409;-66
2023/01/09 01:03:14;;;;;;;21.27;9.60;;;7.00;64.80;;;;;;5020451;28;46430;-64
2023/01/09 01:08:24;;;;;;;12.60;8.00;;;7.00;64.90;;;;;;5020051;28;46359;-64
2023/01/09 01:10:50;;;;;;;11.17;8.10;;;7.00;65.00;;;;;;5021047;28;46355;-65
2023/01/09 01:13:16;;;;;;;18.30;8.90;;;7.00;65.20;;;;;;5020982;28;46434;-65
2023/01/09 01:15:43;;;;;;;10.47;7.50;;;7.00;65.10;;;;;;5020682;28;46789;-64
2023/01/09 01:18:10;;;;;;;13.00;7.70;;;7.10;65.00;;;;;;5020349;28;46566;-65
2023/01/09 01:20:39;;;;;;;13.73;8.20;;;7.10;65.10;;;;;;5021035;28;46477;-65
2023/01/09 01:23:05;;;;;;;11.50;6.70;;;7.10;65.00;;;;;;5021495;28;46315;-64
2023/01/09 01:25:31;;;;;;;9.97;6.13;;;7.10;65.10;;;;;;5019823;28;46197;-65
2023/01/09 01:27:56;;;;;;;9.37;6.67;;;7.10;65.10;;;;;;5019645;28;46296;-64
2023/01/09 01:30:22;;;;;;;9.07;6.80;;;7.10;65.10;;;;;;5020723;28;46371;-63
2023/01/09 01:32:48;;;;;;;10.00;5.90;;;7.10;65.20;;;;;;5020012;28;46477;-64
2023/01/09 01:35:13;;;;;;;11.13;6.27;;;7.20;65.30;;;;;;5020792;28;46398;-64
2023/01/09 01:37:39;;;;;;;12.60;6.23;;;7.20;65.20;;;;;;5019461;28;47133;-64
2023/01/09 01:40:06;;;;;;;10.37;5.97;;;7.20;65.20;;;;;;5020053;28;46355;-64
2023/01/09 01:42:33;;;;;;;12.57;6.70;;;7.20;65.00;;;;;;5019991;28;46374;-64
2023/01/09 01:44:58;;;;;;;10.60;6.07;;;7.20;64.90;;;;;;5019129;28;46501;-64
2023/01/09 01:47:40;;;;;;;10.10;6.40;;;7.20;65.00;;;;;;5019345;28;46933;-64
2023/01/09 01:50:15;;;;;;;11.20;7.27;;;7.20;64.80;;;;;;5020059;28;45827;-65
2023/01/09 01:52:46;;;;;;;9.03;5.97;;;7.10;64.80;;;;;;5020725;28;46675;-64
2023/01/09 01:55:12;;;;;;;11.03;6.50;;;7.10;64.80;;;;;;5020532;28;46379;-64
2023/01/09 01:57:41;;;;;;;10.83;5.93;;;7.10;64.80;;;;;;5018241;28;47116;-64
2023/01/09 02:00:07;;;;;;;9.87;6.10;;;7.10;65.00;;;;;;5020178;28;46952;-64
2023/01/09 02:02:33;;;;;;;12.83;6.50;;;7.00;64.90;;;;;;5018826;28;46396;-64
2023/01/09 02:05:00;;;;;;;12.33;6.00;;;7.10;64.90;;;;;;5018233;28;46041;-65
2023/01/09 02:07:26;;;;;;;9.67;6.53;;;7.10;64.90;;;;;;5018247;28;47288;-64
2023/01/09 02:09:53;;;;;;;8.10;5.50;;;7.10;64.90;;;;;;5020072;28;46316;-65
2023/01/09 02:12:24;;;;;;;9.63;5.57;;;7.10;64.90;;;;;;5020019;28;46721;-64
2023/01/09 02:14:57;;;;;;;8.77;5.83;;;7.10;65.00;;;;;;5019936;28;46498;-64
2023/01/09 02:18:04;;;;;;;9.50;5.70;;;7.10;65.00;;;;;;5019361;28;46376;-64
2023/01/09 02:20:35;;;;;;;8.20;5.07;;;7.10;65.10;;;;;;5018609;28;45850;-64
2023/01/09 02:23:10;;;;;;;7.60;5.13;;;7.20;65.20;;;;;;5017691;28;46534;-64
2023/01/09 02:26:01;;;;;;;9.53;5.37;;;7.20;65.20;;;;;;5019505;28;46755;-65
2023/01/09 02:28:42;;;;;;;9.03;5.43;;;7.20;65.30;;;;;;5007886;28;46891;-64
2023/01/09 02:31:17;;;;;;;7.37;4.67;;;7.20;65.30;;;;;;5017946;28;47048;-64
2023/01/09 02:33:51;;;;;;;6.67;5.00;;;7.20;65.40;;;;;;5019594;28;46717;-65
2023/01/09 02:36:23;;;;;;;7.57;4.77;;;7.20;65.50;;;;;;5018768;28;46366;-65
2023/01/09 02:39:03;;;;;;;9.10;5.10;;;7.10;65.60;;;;;;5019166;28;47080;-64
2023/01/09 02:41:54;;;;;;;6.67;4.33;;;7.10;65.70;;;;;;5019645;28;45765;-64
2023/01/09 02:44:21;;;;;;;7.77;5.07;;;7.10;65.80;;;;;;5018629;28;46393;-65
2023/01/09 02:46:58;;;;;;;6.80;3.97;;;7.00;65.80;;;;;;5019701;28;46362;-64
2023/01/09 02:49:24;;;;;;;7.50;4.67;;;6.90;65.70;;;;;;5017361;28;47060;-64
2023/01/09 02:52:32;;;;;;;7.13;4.70;;;6.90;65.70;;;;;;5019103;28;46421;-65
2023/01/09 02:55:01;;;;;;;5.50;3.30;;;6.90;65.80;;;;;;5005743;28;46528;-65
2023/01/09 02:57:48;;;;;;;5.47;3.77;;;6.80;65.70;;;;;;5017706;28;46344;-65
2023/01/09 03:00:21;;;;;;;5.50;3.80;;;6.80;65.80;;;;;;5018364;28;47294;-64
2023/01/09 03:03:02;;;;;;;7.10;3.40;;;6.80;65.70;;;;;;5017797;28;46430;-64
2023/01/09 03:05:59;;;;;;;7.60;3.83;;;6.80;65.60;;;;;;5015936;28;45840;-64
2023/01/09 03:08:35;;;;;;;5.10;3.40;;;6.80;65.70;;;;;;5017172;28;46529;-65
2023/01/09 03:11:05;;;;;;;5.03;3.13;;;6.80;65.70;;;;;;5017529;28;46386;-65
2023/01/09 03:13:56;;;;;;;7.60;3.70;;;6.70;65.70;;;;;;5017047;28;46449;-65
2023/01/09 03:16:31;;;;;;;5.90;3.10;;;6.80;65.80;;;;;;5015767;28;46363;-65
2023/01/09 03:18:58;;;;;;;4.47;2.97;;;6.80;65.80;;;;;;5017831;28;46466;-65
2023/01/09 03:21:24;;;;;;;4.67;3.00;;;6.70;65.80;;;;;;5017748;28;46994;-65
2023/01/09 03:23:58;;;;;;;4.07;2.50;;;6.70;65.90;;;;;;5016255;28;46511;-64
2023/01/09 03:26:25;;;;;;;3.20;2.50;;;6.80;65.90;;;;;;5017351;28;46260;-65
2023/01/09 03:28:51;;;;;;;4.20;2.53;;;6.80;65.90;;;;;;5016468;28;46968;-65
2023/01/09 03:31:17;;;;;;;4.27;2.73;;;6.90;65.80;;;;;;5016324;28;46469;-65
2023/01/09 03:33:43;;;;;;;6.60;3.07;;;6.90;65.80;;;;;;5015534;28;46828;-65
2023/01/09 03:36:10;;;;;;;4.00;2.90;;;6.90;65.00;;;;;;5015341;28;46457;-64
2023/01/09 03:38:36;;;;;;;5.33;2.70;;;6.90;66.00;;;;;;5016512;28;46419;-63
2023/01/09 03:41:02;;;;;;;3.00;2.30;;;6.90;66.10;;;;;;5017455;28;46430;-66
2023/01/09 03:43:28;;;;;;;4.30;2.30;;;7.00;66.40;;;;;;5015718;28;46407;-65
2023/01/09 03:45:53;;;;;;;4.73;2.17;;;6.90;66.40;;;;;;5017537;28;46525;-64
2023/01/09 03:48:19;;;;;;;3.80;2.43;;;6.90;66.40;;;;;;5018181;28;46312;-64
2023/01/09 03:50:50;;;;;;;3.53;2.13;;;7.00;66.50;;;;;;5016632;28;47037;-65
2023/01/09 03:53:17;;;;;;;6.10;2.20;;;7.00;66.50;;;;;;5017315;28;46352;-64
2023/01/09 03:55:47;;;;;;;3.10;2.17;;;7.10;66.50;;;;;;5018734;28;46447;-65
2023/01/09 03:58:13;;;;;;;2.93;1.87;;;7.10;66.40;;;;;;5016966;28;46584;-65
2023/01/09 04:00:39;;;;;;;2.97;1.93;;;7.20;66.50;;;;;;5017596;28;47213;-65
2023/01/09 04:03:06;;;;;;;3.00;1.80;;;7.20;66.30;;;;;;5016506;28;46341;-64
2023/01/09 04:05:32;;;;;;;2.23;1.60;;;7.30;66.40;;;;;;5017066;28;46347;-65
2023/01/09 04:07:57;;;;;;;2.70;1.57;;;7.30;66.40;;;;;;5017889;28;46561;-64
2023/01/09 04:10:23;;;;;;;5.00;1.00;;;7.30;66.40;;;;;;5017911;28;46446;-64
2023/01/09 04:12:49;;;;;;;1.57;1.10;;;7.40;66.40;;;;;;5018186;28;46331;-65
2023/01/09 04:15:15;;;;;;;3.43;0.90;;;7.40;66.50;;;;;;5018029;28;46418;-65
2023/01/09 04:17:40;;;;;;;1.20;0.90;;;7.40;66.50;;;;;;5016877;28;46450;-66
2023/01/09 04:20:06;;;;;;;1.30;0.80;;;7.50;66.50;;;;;;5017621;28;46401;-65
2023/01/09 04:22:32;;;;;;;1.70;0.90;;;7.50;66.60;;;;;;5016159;28;46546;-65
2023/01/09 04:24:57;;;;;;;2.33;0.80;;;7.50;66.70;;;;;;5016845;28;46533;-65
2023/01/09 04:27:23;;;;;;;1.93;0.70;;;7.60;66.70;;;;;;5017772;28;46487;-65
2023/01/09 04:29:49;;;;;;;1.13;0.70;;;7.60;66.50;;;;;;5015666;28;46351;-64
2023/01/09 04:32:14;;;;;;;1.63;0.90;;;7.70;66.70;;;;;;5017855;28;46366;-66
2023/01/09 04:34:40;;;;;;;2.77;1.10;;;7.70;66.90;;;;;;5016459;28;46492;-65
2023/01/09 04:37:05;;;;;;;1.20;0.80;;;7.60;66.90;;;;;;5017411;28;46612;-65
2023/01/09 04:39:31;;;;;;;1.40;1.00;;;7.60;67.10;;;;;;5016649;28;46457;-65
2023/01/09 04:41:56;;;;;;;1.77;0.87;;;7.70;67.30;;;;;;5018159;28;46444;-65
2023/01/09 04:44:27;;;;;;;2.07;0.90;;;7.70;67.20;;;;;;5017220;28;46388;-64
2023/01/09 04:46:54;;;;;;;1.50;1.10;;;7.80;67.20;;;;;;5017198;28;46705;-65
2023/01/09 04:49:20;;;;;;;1.30;1.00;;;7.80;67.00;;;;;;5016358;28;46455;-64
2023/01/09 04:51:45;;;;;;;1.90;0.90;;;7.80;67.20;;;;;;5017867;28;47039;-65
2023/01/09 04:54:11;;;;;;;2.23;1.00;;;7.80;67.20;;;;;;5017731;28;46369;-65
2023/01/09 04:56:36;;;;;;;1.50;1.10;;;7.80;67.40;;;;;;5016155;28;46461;-65
2023/01/09 04:59:07;;;;;;;1.77;1.10;;;7.80;67.50;;;;;;5018251;28;47015;-64
2023/01/09 05:01:33;;;;;;;1.77;1.00;;;7.80;67.60;;;;;;5013601;28;45850;-67
2023/01/09 05:03:58;;;;;;;2.23;1.10;;;7.80;67.60;;;;;;5015875;28;46423;-65
2023/01/09 05:06:24;;;;;;;2.00;1.00;;;7.80;67.60;;;;;;5017056;28;46589;-65
2023/01/09 05:08:50;;;;;;;1.73;0.80;;;7.80;67.70;;;;;;5017117;28;47041;-64
2023/01/09 05:11:16;;;;;;;2.70;1.00;;;7.70;67.80;;;;;;5017357;28;46347;-64
2023/01/09 05:13:41;;;;;;;11.97;0.80;;;7.70;69.10;;;;;;5017724;28;46410;-65
2023/01/09 05:16:07;;;;;;;1.00;0.60;;;7.70;67.40;;;;;;5015858;28;46390;-65
2023/01/09 05:18:33;;;;;;;1.53;0.87;;;7.60;68.30;;;;;;5018683;28;46611;-65
2023/01/09 05:20:58;;;;;;;1.40;0.60;;;7.60;69.60;;;;;;5017181;28;46567;-65
2023/01/09 05:23:24;;;;;;;1.00;0.60;;;7.60;68.50;;;;;;5017980;28;46790;-64
2023/01/09 05:25:50;;;;;;;1.27;0.70;;;7.50;68.40;;;;;;5017825;28;46350;-65
2023/01/09 05:28:15;;;;;;;1.10;0.60;;;7.60;68.50;;;;;;5017775;28;46449;-65
2023/01/09 05:30:41;;;;;;;1.23;0.70;;;7.50;68.30;;;;;;5016824;28;46669;-65
2023/01/09 05:33:06;;;;;;;1.30;0.60;;;7.50;68.30;;;;;;5017854;28;46398;-65
2023/01/09 05:35:32;;;;;;;1.00;0.60;;;7.50;68.10;;;;;;5016776;28;46474;-65
2023/01/09 05:37:58;;;;;;;0.90;0.50;;;7.50;68.10;;;;;;5016522;28;46422;-65
2023/01/09 05:40:23;;;;;;;1.20;0.70;;;7.50;68.00;;;;;;5019151;28;46494;-65
2023/01/09 05:42:49;;;;;;;2.93;0.70;;;7.40;67.70;;;;;;5020504;28;46513;-64
2023/01/09 05:45:15;;;;;;;1.10;0.50;;;7.40;67.60;;;;;;5020358;28;46417;-64
2023/01/09 05:47:42;;;;;;;1.20;0.70;;;7.30;67.60;;;;;;5020001;28;48023;-64
2023/01/09 05:50:08;;;;;;;1.20;0.70;;;7.30;67.70;;;;;;5019849;28;46397;-65
2023/01/09 05:52:34;;;;;;;1.00;0.50;;;7.10;67.60;;;;;;5020117;28;46490;-65
2023/01/09 05:54:59;;;;;;;1.00;0.60;;;7.10;67.60;;;;;;5020407;28;46400;-65
2023/01/09 05:57:25;;;;;;;0.90;0.50;;;7.00;67.50;;;;;;5019916;28;47123;-65
2023/01/09 05:59:50;;;;;;;0.97;0.53;;;7.00;67.50;;;;;;5020222;28;46477;-65
2023/01/09 06:02:16;;;;;;;1.10;0.60;;;6.90;67.50;;;;;;5019155;28;46343;-66
2023/01/09 06:04:42;;;;;;;0.90;0.60;;;6.80;67.50;;;;;;5020416;28;47134;-66
2023/01/09 06:07:08;;;;;;;4.90;0.60;;;6.80;67.40;;;;;;5019404;28;47048;-65
2023/01/09 06:09:34;;;;;;;1.00;0.53;;;6.80;67.20;;;;;;5020769;28;46350;-65
2023/01/09 06:11:59;;;;;;;0.90;0.50;;;6.80;67.10;;;;;;5020826;28;46362;-65
2023/01/09 06:14:25;;;;;;;0.90;0.57;;;6.80;67.20;;;;;;5020091;28;46620;-65
2023/01/09 06:16:51;;;;;;;3.10;0.67;;;6.80;67.00;;;;;;5019872;28;46356;-65
2023/01/09 06:19:16;;;;;;;0.90;0.50;;;6.80;66.90;;;;;;5020431;28;46417;-65
2023/01/09 06:21:42;;;;;;;0.90;0.50;;;6.80;66.70;;;;;;5019439;28;46445;-65
2023/01/09 06:24:08;;;;;;;1.50;0.67;;;6.80;66.60;;;;;;5020523;28;46386;-65
2023/01/09 06:26:33;;;;;;;1.20;0.70;;;6.90;66.40;;;;;;5019148;28;45936;-64
2023/01/09 06:29:00;;;;;;;1.00;0.50;;;6.90;66.10;;;;;;5019883;28;46422;-66
2023/01/09 06:31:26;;;;;;;2.47;0.60;;;6.90;66.00;;;;;;5020218;28;46139;-65
2023/01/09 06:33:52;;;;;;;1.20;0.60;;;7.00;66.00;;;;;;5020192;28;45936;-65
2023/01/09 06:36:17;;;;;;;0.90;0.60;;;7.00;65.90;;;;;;5018371;28;46524;-66
2023/01/09 06:38:43;;;;;;;1.60;0.67;;;7.00;65.80;;;;;;5018464;28;46619;-65
2023/01/09 06:41:09;;;;;;;1.23;0.80;;;7.00;65.70;;;;;;5019889;28;46364;-64
2023/01/09 06:43:34;;;;;;;2.43;0.67;;;7.00;65.60;;;;;;5018855;28;46425;-65
2023/01/09 06:46:00;;;;;;;1.10;0.80;;;7.00;64.50;;;;;;5018304;28;46110;-64
2023/01/09 06:48:26;;;;;;;1.00;0.60;;;7.00;65.50;;;;;;5018753;28;46516;-65
2023/01/09 06:50:53;;;;;;;1.00;0.60;;;6.90;65.40;;;;;;5018459;28;46477;-66
2023/01/09 06:53:18;;;;;;;0.90;0.60;;;6.90;65.40;;;;;;5020728;28;46445;-65
2023/01/09 06:55:45;;;;;;;1.00;0.60;;;6.90;65.40;;;;;;5016144;28;46670;-65
2023/01/09 06:58:11;;;;;;;1.53;0.80;;;6.80;65.40;;;;;;5014449;28;46539;-65
2023/01/09 07:00:37;;;;;;;1.83;0.60;;;6.70;65.80;;;;;;5016912;28;46434;-63
2023/01/09 07:03:03;;;;;;;0.97;0.50;;;6.50;66.70;;;;;;5017063;28;46562;-64
2023/01/09 07:05:29;;;;;;;1.00;0.50;;;6.20;68.20;;;;;;5013879;28;46664;-63
2023/01/09 07:07:55;;;;;;;1.20;0.60;;;5.80;69.80;;;;;;5017461;28;46457;-64
2023/01/09 07:10:22;;;;;;;1.23;0.60;;;5.50;71.10;;;;;;5016627;28;46505;-65
2023/01/09 07:12:47;;;;;;;1.00;0.57;;;5.40;71.90;;;;;;5017883;28;46510;-64
2023/01/09 07:15:13;;;;;;;2.50;0.50;;;5.40;71.90;;;;;;5017335;28;46692;-64
2023/01/09 07:17:39;;;;;;;0.80;0.50;;;5.40;72.30;;;;;;5018159;28;46418;-65
2023/01/09 07:20:05;;;;;;;0.97;0.53;;;5.40;72.50;;;;;;5018286;28;46303;-64
2023/01/09 07:22:31;;;;;;;0.90;0.60;;;5.40;72.30;;;;;;5017353;28;46445;-64
2023/01/09 07:24:56;;;;;;;1.00;0.50;;;5.40;72.30;;;;;;5017361;28;47120;-65
2023/01/09 07:27:22;;;;;;;0.90;0.50;;;5.40;73.60;;;;;;5017670;28;45830;-65
2023/01/09 07:29:49;;;;;;;0.90;0.50;;;5.50;72.10;;;;;;5016940;28;46258;-65
2023/01/09 07:32:14;;;;;;;0.83;0.50;;;5.50;72.10;;;;;;5016578;28;46899;-63
2023/01/09 07:34:40;;;;;;;0.90;0.50;;;5.30;72.40;;;;;;5016868;28;46964;-65
2023/01/09 07:37:06;;;;;;;0.80;0.50;;;5.30;72.90;;;;;;5020078;28;46559;-63
2023/01/09 07:39:32;;;;;;;1.00;0.60;;;5.30;73.10;;;;;;5016580;28;46631;-65
2023/01/09 07:41:57;;;;;;;0.90;0.60;;;5.30;73.70;;;;;;5016801;28;46506;-65
2023/01/09 07:44:23;;;;;;;0.90;0.60;;;5.30;73.80;;;;;;5016626;28;47052;-65
2023/01/09 07:46:48;;;;;;;1.50;0.60;;;5.30;73.60;;;;;;5014726;28;46429;-63
2023/01/09 07:49:14;;;;;;;1.17;0.60;;;5.30;73.80;;;;;;5017435;28;46478;-64
2023/01/09 07:51:42;;;;;;;0.90;0.60;;;5.40;73.40;;;;;;5015894;28;46426;-66
2023/01/09 07:54:08;;;;;;;0.90;0.60;;;5.40;73.40;;;;;;5017086;28;47058;-65
2023/01/09 07:56:34;;;;;;;1.20;0.60;;;5.40;73.50;;;;;;5015104;28;46498;-65
2023/01/09 07:59:00;;;;;;;0.90;0.60;;;5.40;73.70;;;;;;5016518;28;45835;-65
2023/01/09 08:01:25;;;;;;;2.27;0.60;;;5.50;75.20;;;;;;5013884;28;46430;-63
2023/01/09 08:03:51;;;;;;;1.00;0.70;;;5.40;74.00;;;;;;5014134;28;46463;-64
2023/01/09 08:06:17;;;;;;;1.00;0.70;;;5.50;73.60;;;;;;5017645;28;46422;-64
2023/01/09 08:08:42;;;;;;;1.00;0.70;;;5.50;73.00;;;;;;5014840;28;46486;-65
2023/01/09 08:11:08;;;;;;;1.00;0.70;;;5.60;72.90;;;;;;5016591;28;46637;-65
2023/01/09 08:13:33;;;;;;;2.07;1.10;;;5.70;72.80;;;;;;5016155;28;46404;-66
2023/01/09 08:15:59;;;;;;;1.00;0.70;;;5.90;71.10;;;;;;5016082;28;46268;-65
2023/01/09 08:18:25;;;;;;;1.93;0.70;;;5.90;72.20;;;;;;5016459;28;46498;-64
2023/01/09 08:20:50;;;;;;;2.40;0.70;;;6.00;71.70;;;;;;5016485;28;46529;-64
2023/01/09 08:23:16;;;;;;;1.50;0.80;;;6.10;71.40;;;;;;5016866;28;46366;-66
2023/01/09 08:25:42;;;;;;;1.07;0.67;;;6.20;71.30;;;;;;5015675;28;46599;-67
2023/01/09 08:28:10;;;;;;;5.43;0.80;;;6.20;71.30;;;;;;5016350;28;46788;-65
2023/01/09 08:30:36;;;;;;;2.13;0.97;;;6.20;71.20;;;;;;5015987;28;45883;-65
2023/01/09 08:33:02;;;;;;;3.30;1.43;;;6.20;71.30;;;;;;5016523;28;47068;-65
2023/01/09 08:35:28;;;;;;;2.10;1.40;;;6.20;71.30;;;;;;5015697;28;45968;-65
2023/01/09 08:37:53;;;;;;;3.63;0.90;;;6.10;71.40;;;;;;5015657;28;46372;-63
2023/01/09 08:40:19;;;;;;;2.07;1.10;;;6.10;71.40;;;;;;5015956;28;46455;-65
2023/01/09 08:48:14;;;;;;;2.10;1.20;;;6.00;71.10;;;;;;5016278;28;46419;-63
2023/01/09 08:50:39;;;;;;;1.03;0.70;;;6.00;71.10;;;;;;5014024;28;46397;-67
2023/01/09 08:53:05;;;;;;;3.50;0.80;;;6.00;71.00;;;;;;5016002;28;46357;-63
2023/01/09 08:55:30;;;;;;;1.77;0.70;;;6.10;70.70;;;;;;5014164;28;46334;-65
2023/01/09 08:57:56;;;;;;;2.37;0.93;;;6.10;70.50;;;;;;5016574;28;46366;-65
2023/01/09 09:00:23;;;;;;;2.90;1.00;;;6.20;70.30;;;;;;5016262;28;46697;-64
2023/01/09 09:02:53;;;;;;;9.03;0.90;;;6.20;69.90;;;;;;5015596;28;47922;-65
2023/01/09 09:05:20;;;;;;;2.43;0.90;;;6.20;69.60;;;;;;5014785;28;46469;-65
2023/01/09 09:07:52;;;;;;;1.47;0.90;;;6.20;69.40;;;;;;5014899;28;46469;-64
2023/01/09 09:10:18;;;;;;;3.00;0.93;;;6.20;69.30;;;;;;5014034;28;46401;-64
2023/01/09 09:12:47;;;;;;;1.73;1.00;;;6.20;69.20;;;;;;5015200;28;46482;-66
2023/01/09 09:15:15;;;;;;;3.70;0.80;;;6.20;69.00;;;;;;5017512;28;46796;-66
2023/01/09 09:17:41;;;;;;;1.70;0.90;;;6.30;68.60;;;;;;5018368;28;46955;-65
2023/01/09 09:20:09;;;;;;;1.00;0.70;;;6.30;68.30;;;;;;5018867;28;46601;-65
2023/01/09 09:22:35;;;;;;;1.70;0.70;;;6.30;68.10;;;;;;5018781;28;46469;-66
2023/01/09 09:25:03;;;;;;;1.33;0.70;;;6.30;68.00;;;;;;5018505;28;46479;-65
2023/01/09 09:27:29;;;;;;;6.97;1.10;;;6.40;67.90;;;;;;5017068;28;46501;-66
2023/01/09 09:29:54;;;;;;;3.50;1.07;;;6.40;67.60;;;;;;5018518;28;46608;-63
2023/01/09 09:32:20;;;;;;;3.40;0.90;;;6.40;67.50;;;;;;5016398;28;46741;-64
2023/01/09 09:34:46;;;;;;;3.00;0.70;;;6.40;67.50;;;;;;5016753;28;46435;-65
2023/01/09 09:37:12;;;;;;;3.93;1.80;;;6.40;67.30;;;;;;5020097;28;46573;-64
2023/01/09 09:39:37;;;;;;;4.33;0.90;;;6.40;67.10;;;;;;5017072;28;46605;-66
2023/01/09 09:45:19;;;;;;;1.47;0.67;;;6.60;66.30;;;;;;5014176;28;46938;-64
2023/01/09 09:48:13;;;;;;;1.87;0.60;;;6.80;65.60;;;;;;5018114;28;46430;-67
2023/01/09 09:50:50;;;;;;;3.00;0.93;;;6.80;65.30;;;;;;5017295;28;46458;-67
2023/01/09 09:53:42;;;;;;;2.43;0.70;;;6.80;65.40;;;;;;5017188;28;47360;-65
2023/01/09 09:56:13;;;;;;;6.53;0.70;;;6.70;64.50;;;;;;5018275;28;47148;-64
2023/01/09 09:59:05;;;;;;;3.87;0.90;;;6.70;65.40;;;;;;5018715;28;46362;-64
2023/01/09 10:02:01;;;;;;;3.30;0.80;;;6.80;65.30;;;;;;5017551;28;46391;-65
2023/01/09 10:04:31;;;;;;;2.80;0.93;;;6.80;64.90;;;;;;5017396;28;46398;-63
2023/01/09 10:07:08;;;;;;;3.13;1.00;;;6.90;64.90;;;;;;5019780;28;46375;-64
2023/01/09 10:09:48;;;;;;;2.10;0.83;;;6.90;64.70;;;;;;5024653;28;46476;-63
2023/01/09 10:12:29;;;;;;;1.47;0.70;;;6.90;64.70;;;;;;5018059;28;46473;-64
2023/01/09 10:14:57;;;;;;;2.80;0.80;;;6.90;64.40;;;;;;5018404;28;47096;-64
2023/01/09 10:17:26;;;;;;;2.23;0.90;;;6.80;64.10;;;;;;5019919;28;46509;-65
2023/01/09 10:20:00;;;;;;;2.07;0.90;;;7.00;64.10;;;;;;5020608;28;46385;-63
2023/01/09 10:23:19;;;;;;;2.53;0.90;;;7.10;63.20;;;;;;5017778;28;46480;-63
2023/01/09 10:25:50;;;;;;;1.93;0.70;;;7.20;63.00;;;;;;4989257;28;46458;-63
2023/01/09 10:28:25;;;;;;;4.00;0.90;;;7.30;63.00;;;;;;5012481;28;47499;-63
2023/01/09 10:31:02;;;;;;;3.43;0.80;;;7.40;62.40;;;;;;5018207;28;45891;-64
2023/01/09 10:33:51;;;;;;;2.77;0.80;;;7.50;61.90;;;;;;5018134;28;46440;-64
2023/01/09 10:36:41;;;;;;;4.70;1.00;;;7.60;61.70;;;;;;5013357;28;46957;-64
2023/01/09 10:39:17;;;;;;;5.70;0.90;;;7.60;61.30;;;;;;5018513;28;46668;-64
2023/01/09 10:41:52;;;;;;;2.60;0.80;;;7.60;61.20;;;;;;5017114;28;46418;-66
2023/01/09 10:44:37;;;;;;;10.13;0.90;;;7.60;61.10;;;;;;5018571;28;46714;-64
2023/01/09 10:47:09;;;;;;;4.20;0.87;;;7.60;60.90;;;;;;5018166;28;46473;-66
2023/01/09 10:49:37;;;;;;;2.27;0.90;;;7.60;61.80;;;;;;5017855;28;45969;-67
2023/01/09 10:52:19;;;;;;;4.50;0.77;;;7.70;60.60;;;;;;5018286;28;46523;-65
2023/01/09 10:54:54;;;;;;;2.37;0.80;;;7.70;60.20;;;;;;5018203;28;46374;-65
2023/01/09 10:57:40;;;;;;;2.80;0.90;;;7.80;60.00;;;;;;5018214;28;46884;-64
2023/01/09 11:00:12;;;;;;;1.87;0.70;;;7.80;59.90;;;;;;5016259;28;46476;-65
2023/01/09 11:02:38;;;;;;;3.93;1.07;;;7.70;59.80;;;;;;5017633;28;46485;-66
2023/01/09 11:05:04;;;;;;;1.33;0.70;;;7.70;59.70;;;;;;5017156;28;46586;-65
2023/01/09 11:07:35;;;;;;;8.70;1.30;;;7.70;59.50;;;;;;5017708;28;46030;-67
2023/01/09 11:10:10;;;;;;;2.83;0.70;;;7.70;59.30;;;;;;5017942;28;46401;-64
2023/01/09 11:12:37;;;;;;;2.83;0.80;;;7.70;59.10;;;;;;5016314;28;46574;-65
2023/01/09 11:15:15;;;;;;;2.00;0.93;;;7.80;58.80;;;;;;5017253;28;46428;-64
2023/01/09 11:17:45;;;;;;;5.00;0.97;;;7.80;58.40;;;;;;5017647;28;46512;-65
2023/01/09 11:20:31;;;;;;;4.73;1.33;;;7.90;58.10;;;;;;5016924;28;46391;-64
2023/01/09 11:22:57;;;;;;;3.70;0.90;;;7.90;58.90;;;;;;5018342;28;46532;-64
2023/01/09 11:25:26;;;;;;;7.33;1.00;;;7.90;57.70;;;;;;5017905;28;46694;-66
2023/01/09 11:28:00;;;;;;;3.23;1.00;;;7.90;58.60;;;;;;5016615;28;46211;-66
2023/01/09 11:30:26;;;;;;;3.43;0.80;;;8.00;57.20;;;;;;5017762;28;45888;-64
2023/01/09 11:32:54;;;;;;;3.13;1.00;;;8.00;57.10;;;;;;5016622;28;46444;-64
2023/01/09 11:35:30;;;;;;;14.37;7.27;;;8.00;56.90;;;;;;5017742;28;46509;-63
2023/01/09 11:38:16;;;;;;;3.03;1.10;;;8.00;56.40;;;;;;5015231;28;46601;-63
2023/01/09 11:40:57;;;;;;;3.47;1.07;;;8.00;56.00;;;;;;5016034;28;46455;-63
2023/01/09 11:43:31;;;;;;;1.20;0.70;;;8.10;55.90;;;;;;5016815;28;45859;-66
2023/01/09 11:46:00;;;;;;;3.13;0.90;;;8.20;54.30;;;;;;5016089;28;46632;-65
2023/01/09 11:48:40;;;;;;;1.80;0.80;;;8.20;55.30;;;;;;5016676;28;47310;-64
2023/01/09 11:51:17;;;;;;;6.20;0.90;;;8.30;55.00;;;;;;5017690;28;46405;-64
2023/01/09 11:53:59;;;;;;;2.77;0.70;;;8.30;54.40;;;;;;5016508;28;46498;-64
2023/01/09 11:56:25;;;;;;;6.93;0.90;;;8.30;54.40;;;;;;5017018;28;46324;-63
2023/01/09 11:58:51;;;;;;;3.50;1.00;;;8.30;54.80;;;;;;5015339;28;47054;-63
2023/01/09 12:01:45;;;;;;;1.83;0.80;;;8.30;54.20;;;;;;5016566;28;46568;-63
2023/01/09 12:04:48;;;;;;;3.30;1.00;;;8.40;54.10;;;;;;5016078;28;46357;-63
2023/01/09 12:07:20;;;;;;;6.20;1.10;;;8.40;53.90;;;;;;5016010;28;45928;-62
2023/01/09 12:10:00;;;;;;;5.93;1.10;;;8.40;53.70;;;;;;5015816;28;46035;-64
2023/01/09 12:12:33;;;;;;;1.50;0.70;;;8.40;53.40;;;;;;5015725;28;46493;-64
2023/01/09 12:15:22;;;;;;;3.97;1.03;;;8.40;53.30;;;;;;5016243;28;46394;-63
2023/01/09 12:18:22;;;;;;;7.17;1.00;;;8.40;52.80;;;;;;5014654;28;46765;-63
2023/01/09 12:21:30;;;;;;;3.13;1.10;;;8.50;51.90;;;;;;5014930;28;46480;-65
2023/01/09 12:24:17;;;;;;;2.83;0.77;;;8.50;52.70;;;;;;5006455;28;45961;-65
2023/01/09 12:26:57;;;;;;;6.30;1.00;;;8.50;52.40;;;;;;5015242;28;46484;-64
2023/01/09 12:29:28;;;;;;;6.87;0.90;;;8.40;52.50;;;;;;5017397;28;46494;-65
2023/01/09 12:32:18;;;;;;;5.80;1.10;;;8.30;52.20;;;;;;5014658;28;47207;-64
2023/01/09 12:34:51;;;;;;;2.30;1.03;;;8.30;52.10;;;;;;5014792;28;46131;-65
2023/01/09 12:37:45;;;;;;;9.90;0.97;;;8.30;51.70;;;;;;5016269;28;46398;-63
2023/01/09 12:40:44;;;;;;;2.70;0.90;;;8.40;51.50;;;;;;5017596;28;45798;-64
2023/01/09 12:43:38;;;;;;;2.00;0.77;;;8.50;51.30;;;;;;5015590;28;46678;-65
2023/01/09 12:46:13;;;;;;;5.00;0.97;;;8.40;50.20;;;;;;5015678;28;46637;-64
2023/01/09 12:49:03;;;;;;;5.17;1.10;;;8.40;51.20;;;;;;5013011;28;46758;-64
2023/01/09 12:51:49;;;;;;;2.40;0.90;;;8.30;51.30;;;;;;5015834;28;46497;-64
2023/01/09 12:54:33;;;;;;;7.90;1.20;;;8.30;51.10;;;;;;5016563;28;46261;-64
2023/01/09 12:57:12;;;;;;;2.23;0.90;;;8.30;51.30;;;;;;5015940;28;45863;-65
2023/01/09 12:59:40;;;;;;;2.83;0.70;;;8.30;51.40;;;;;;5014772;28;46494;-64
2023/01/09 13:02:17;;;;;;;3.73;0.70;;;8.30;51.10;;;;;;5014971;28;45939;-63
2023/01/09 13:04:54;;;;;;;1.70;0.70;;;8.30;51.10;;;;;;5013426;28;47216;-64
2023/01/09 13:07:25;;;;;;;3.17;0.83;;;8.30;51.10;;;;;;5015685;28;46386;-64
2023/01/09 13:09:58;;;;;;;2.50;1.20;;;8.30;51.10;;;;;;5015930;28;46461;-63
2023/01/09 13:12:26;;;;;;;1.63;0.90;;;8.30;51.10;;;;;;5016440;28;46456;-64
2023/01/09 13:15:05;;;;;;;4.20;1.00;;;8.30;51.10;;;;;;5014797;28;46653;-63
2023/01/09 13:17:50;;;;;;;3.60;1.00;;;8.30;51.20;;;;;;5015402;28;45779;-63
2023/01/09 13:20:15;;;;;;;2.30;0.80;;;8.40;51.20;;;;;;5015740;28;46594;-64
2023/01/09 13:22:46;;;;;;;1.20;0.60;;;8.40;51.20;;;;;;5015384;28;46651;-66
2023/01/09 13:25:30;;;;;;;1.40;0.80;;;8.40;51.20;;;;;;5014895;28;47199;-64